createdAt,value
2018-06-13T00:00:51.220Z,1023.73
2018-06-13T00:01:51.843Z,1023.72
2018-06-13T00:02:52.417Z,1023.78
2018-06-13T00:03:52.991Z,1023.71
2018-06-13T00:04:53.565Z,1023.74
2018-06-13T00:05:54.140Z,1023.67
2018-06-13T00:06:54.714Z,1023.74
2018-06-13T00:07:55.338Z,1023.72
2018-06-13T00:08:55.912Z,1023.69
2018-06-13T00:09:56.487Z,1023.67
2018-06-13T00:10:57.062Z,1023.67
2018-06-13T00:11:57.639Z,1023.69
2018-06-13T00:12:58.266Z,1023.76
2018-06-13T00:13:58.876Z,1023.69
2018-06-13T00:14:59.453Z,1023.71
2018-06-13T00:16:00.027Z,1023.75
2018-06-13T00:17:00.600Z,1023.70
2018-06-13T00:18:01.226Z,1023.69
2018-06-13T00:19:01.799Z,1023.66
2018-06-13T00:20:02.374Z,1023.66
2018-06-13T00:21:02.949Z,1023.61
2018-06-13T00:22:03.521Z,1023.63
2018-06-13T00:23:04.145Z,1023.71
2018-06-13T00:24:04.717Z,1023.63
2018-06-13T00:25:05.291Z,1023.58
2018-06-13T00:26:05.863Z,1023.65
2018-06-13T00:27:06.437Z,1023.62
2018-06-13T00:28:07.012Z,1023.60
2018-06-13T00:29:07.634Z,1023.62
2018-06-13T00:30:08.260Z,1023.64
2018-06-13T00:31:08.834Z,1023.58
2018-06-13T00:32:09.408Z,1023.61
2018-06-13T00:33:09.981Z,1023.55
2018-06-13T00:34:10.555Z,1023.55
2018-06-13T00:35:11.131Z,1023.59
2018-06-13T00:36:11.704Z,1023.53
2018-06-13T00:37:12.304Z,1023.47
2018-06-13T00:38:12.906Z,1023.49
2018-06-13T00:39:13.480Z,1023.55
2018-06-13T00:40:14.055Z,1023.61
2018-06-13T00:41:14.627Z,1023.60
2018-06-13T00:42:15.201Z,1023.59
2018-06-13T00:43:15.827Z,1023.53
2018-06-13T00:44:16.402Z,1023.59
2018-06-13T00:45:16.974Z,1023.61
2018-06-13T00:46:17.548Z,1023.59
2018-06-13T00:47:18.120Z,1023.54
2018-06-13T00:48:18.696Z,1023.53
2018-06-13T00:49:19.273Z,1023.52
2018-06-13T00:50:19.842Z,1023.49
2018-06-13T00:51:20.416Z,1023.50
2018-06-13T00:52:20.991Z,1023.58
2018-06-13T00:53:21.564Z,1023.49
2018-06-13T00:54:22.138Z,1023.53
2018-06-13T00:55:22.767Z,1023.53
2018-06-13T00:56:23.387Z,1023.41
2018-06-13T00:57:23.960Z,1023.48
2018-06-13T00:58:24.534Z,1023.51
2018-06-13T00:59:25.159Z,1023.47
2018-06-13T01:00:25.734Z,1023.41
2018-06-13T01:01:26.306Z,1023.47
2018-06-13T01:02:26.880Z,1023.48
2018-06-13T01:03:27.456Z,1023.42
2018-06-13T01:04:28.030Z,1023.49
2018-06-13T01:05:28.601Z,1023.45
2018-06-13T01:06:29.176Z,1023.47
2018-06-13T01:07:29.750Z,1023.40
2018-06-13T01:08:30.326Z,1023.42
2018-06-13T01:09:30.940Z,1023.34
2018-06-13T01:10:31.609Z,1023.37
2018-06-13T01:11:32.182Z,1023.37
2018-06-13T01:12:32.809Z,1023.32
2018-06-13T01:13:33.433Z,1023.33
2018-06-13T01:14:34.011Z,1023.34
2018-06-13T01:15:34.589Z,1023.23
2018-06-13T01:16:35.168Z,1023.29
2018-06-13T01:17:35.796Z,1023.29
2018-06-13T01:18:36.367Z,1023.23
2018-06-13T01:19:36.947Z,1023.27
2018-06-13T01:20:37.516Z,1023.24
2018-06-13T01:21:38.088Z,1023.29
2018-06-13T01:22:38.665Z,1023.24
2018-06-13T01:23:39.240Z,1023.23
2018-06-13T01:24:39.812Z,1023.24
2018-06-13T01:25:40.387Z,1023.20
2018-06-13T01:26:40.962Z,1023.19
2018-06-13T01:27:41.535Z,1023.26
2018-06-13T01:28:42.158Z,1023.27
2018-06-13T01:29:42.732Z,1023.25
2018-06-13T01:30:43.307Z,1023.30
2018-06-13T01:31:43.930Z,1023.27
2018-06-13T01:32:44.506Z,1023.24
2018-06-13T01:33:45.081Z,1023.28
2018-06-13T01:34:45.653Z,1023.27
2018-06-13T01:35:46.226Z,1023.29
2018-06-13T01:36:46.851Z,1023.21
2018-06-13T01:37:47.426Z,1023.24
2018-06-13T01:38:47.999Z,1023.21
2018-06-13T01:39:48.575Z,1023.19
2018-06-13T01:40:49.148Z,1023.24
2018-06-13T01:41:49.721Z,1023.24
2018-06-13T01:42:50.294Z,1023.19
2018-06-13T01:43:50.871Z,1023.21
2018-06-13T01:44:51.442Z,1023.16
2018-06-13T01:45:52.017Z,1023.26
2018-06-13T01:46:52.639Z,1023.19
2018-06-13T01:47:53.261Z,1023.19
2018-06-13T01:48:53.835Z,1023.17
2018-06-13T01:49:54.411Z,1023.18
2018-06-13T01:50:55.025Z,1023.17
2018-06-13T01:51:55.648Z,1023.20
2018-06-13T01:52:56.222Z,1023.14
2018-06-13T01:53:56.795Z,1023.14
2018-06-13T01:54:57.368Z,1023.26
2018-06-13T01:55:57.944Z,1023.14
2018-06-13T01:56:58.517Z,1023.13
2018-06-13T01:57:59.090Z,1023.11
2018-06-13T01:58:59.667Z,1023.08
2018-06-13T02:00:00.282Z,1023.12
2018-06-13T02:01:00.855Z,1023.12
2018-06-13T02:02:01.487Z,1023.19
2018-06-13T02:03:02.056Z,1023.17
2018-06-13T02:04:02.630Z,1023.14
2018-06-13T02:05:03.253Z,1023.17
2018-06-13T02:06:03.834Z,1023.23
2018-06-13T02:07:04.608Z,1023.19
2018-06-13T02:08:05.221Z,1023.11
2018-06-13T02:09:05.794Z,1023.22
2018-06-13T02:10:06.368Z,1023.16
2018-06-13T02:11:06.942Z,1023.15
2018-06-13T02:12:07.515Z,1023.11
2018-06-13T02:13:08.088Z,1023.13
2018-06-13T02:14:08.710Z,1023.13
2018-06-13T02:15:09.285Z,1023.18
2018-06-13T02:16:09.859Z,1023.13
2018-06-13T02:17:10.433Z,1023.15
2018-06-13T02:18:11.006Z,1023.14
2018-06-13T02:19:11.582Z,1023.15
2018-06-13T02:20:12.157Z,1023.08
2018-06-13T02:21:12.730Z,1023.15
2018-06-13T02:22:13.353Z,1023.12
2018-06-13T02:23:13.928Z,1023.09
2018-06-13T02:24:14.501Z,1023.13
2018-06-13T02:25:15.128Z,1023.17
2018-06-13T02:26:15.700Z,1023.15
2018-06-13T02:27:16.276Z,1023.15
2018-06-13T02:28:16.847Z,1023.20
2018-06-13T02:29:17.471Z,1023.08
2018-06-13T02:30:18.096Z,1023.11
2018-06-13T02:31:18.670Z,1023.14
2018-06-13T02:32:19.248Z,1023.04
2018-06-13T02:33:19.818Z,1023.06
2018-06-13T02:34:20.393Z,1022.98
2018-06-13T02:35:21.009Z,1023.07
2018-06-13T02:36:21.632Z,1023.06
2018-06-13T02:37:22.206Z,1023.08
2018-06-13T02:38:22.784Z,1023.07
2018-06-13T02:39:23.396Z,1023.08
2018-06-13T02:40:23.974Z,1023.07
2018-06-13T02:41:24.593Z,1023.02
2018-06-13T02:42:25.170Z,1023.10
2018-06-13T02:43:25.742Z,1023.08
2018-06-13T02:44:26.365Z,1023.08
2018-06-13T02:45:26.938Z,1023.03
2018-06-13T02:46:27.512Z,1023.10
2018-06-13T02:47:28.138Z,1023.01
2018-06-13T02:48:28.711Z,1023.12
2018-06-13T02:49:29.285Z,1023.08
2018-06-13T02:50:30.012Z,1023.01
2018-06-13T02:51:30.585Z,1023.02
2018-06-13T02:52:31.160Z,1023.03
2018-06-13T02:53:31.732Z,1023.01
2018-06-13T02:54:32.306Z,1022.89
2018-06-13T02:55:32.880Z,1022.92
2018-06-13T02:56:33.457Z,1022.94
2018-06-13T02:57:34.031Z,1022.94
2018-06-13T02:58:34.645Z,1022.87
2018-06-13T02:59:35.220Z,1022.96
2018-06-13T03:00:35.844Z,1022.89
2018-06-13T03:01:36.420Z,1022.92
2018-06-13T03:02:37.043Z,1022.90
2018-06-13T03:03:37.669Z,1022.88
2018-06-13T03:04:38.283Z,1022.94
2018-06-13T03:05:38.856Z,1022.83
2018-06-13T03:06:39.436Z,1022.91
2018-06-13T03:07:40.049Z,1022.83
2018-06-13T03:08:40.622Z,1022.90
2018-06-13T03:09:41.195Z,1022.91
2018-06-13T03:10:41.769Z,1022.83
2018-06-13T03:11:42.344Z,1022.76
2018-06-13T03:12:42.917Z,1022.79
2018-06-13T03:13:43.490Z,1022.68
2018-06-13T03:14:44.066Z,1022.70
2018-06-13T03:15:44.690Z,1022.59
2018-06-13T03:16:45.267Z,1022.62
2018-06-13T03:17:46.039Z,1022.62
2018-06-13T03:18:46.612Z,1022.66
2018-06-13T03:19:47.183Z,1022.52
2018-06-13T03:20:47.820Z,1022.63
2018-06-13T03:21:48.388Z,1022.63
2018-06-13T03:22:48.997Z,1022.63
2018-06-13T03:23:49.569Z,1022.63
2018-06-13T03:24:50.191Z,1022.60
2018-06-13T03:25:50.766Z,1022.61
2018-06-13T03:26:51.339Z,1022.53
2018-06-13T03:27:51.911Z,1022.60
2018-06-13T03:28:52.486Z,1022.55
2018-06-13T03:29:53.059Z,1022.52
2018-06-13T03:30:53.685Z,1022.49
2018-06-13T03:31:54.300Z,1022.48
2018-06-13T03:32:54.873Z,1022.48
2018-06-13T03:33:55.447Z,1022.52
2018-06-13T03:34:56.022Z,1022.60
2018-06-13T03:35:56.595Z,1022.55
2018-06-13T03:36:57.262Z,1022.45
2018-06-13T03:37:57.885Z,1022.52
2018-06-13T03:38:58.460Z,1022.49
2018-06-13T03:39:59.075Z,1022.42
2018-06-13T03:40:59.705Z,1022.41
2018-06-13T03:42:00.224Z,1022.35
2018-06-13T03:43:00.846Z,1022.37
2018-06-13T03:44:01.423Z,1022.35
2018-06-13T03:45:01.995Z,1022.40
2018-06-13T03:46:02.569Z,1022.39
2018-06-13T03:47:03.142Z,1022.39
2018-06-13T03:48:03.714Z,1022.43
2018-06-13T03:49:04.288Z,1022.38
2018-06-13T03:50:04.860Z,1022.38
2018-06-13T03:51:05.434Z,1022.38
2018-06-13T03:52:06.010Z,1022.37
2018-06-13T03:53:06.584Z,1022.45
2018-06-13T03:54:07.207Z,1022.36
2018-06-13T03:55:07.830Z,1022.37
2018-06-13T03:56:08.409Z,1022.39
2018-06-13T03:57:08.976Z,1022.40
2018-06-13T03:58:09.549Z,1022.46
2018-06-13T03:59:10.121Z,1022.40
2018-06-13T04:00:10.698Z,1022.37
2018-06-13T04:01:11.267Z,1022.50
2018-06-13T04:02:11.893Z,1022.45
2018-06-13T04:03:12.467Z,1022.46
2018-06-13T04:04:13.037Z,1022.46
2018-06-13T04:05:13.612Z,1022.42
2018-06-13T04:06:14.187Z,1022.40
2018-06-13T04:07:14.817Z,1022.41
2018-06-13T04:08:15.333Z,1022.39
2018-06-13T04:09:15.906Z,1022.40
2018-06-13T04:10:16.481Z,1022.39
2018-06-13T04:11:17.145Z,1022.38
2018-06-13T04:12:17.767Z,1022.39
2018-06-13T04:13:18.340Z,1022.38
2018-06-13T04:14:18.912Z,1022.36
2018-06-13T04:15:19.489Z,1022.26
2018-06-13T04:16:20.062Z,1022.23
2018-06-13T04:17:20.635Z,1022.27
2018-06-13T04:18:21.209Z,1022.27
2018-06-13T04:19:21.826Z,1022.25
2018-06-13T04:20:22.450Z,1022.29
2018-06-13T04:21:23.024Z,1022.37
2018-06-13T04:22:23.641Z,1022.32
2018-06-13T04:23:24.172Z,1022.37
2018-06-13T04:24:24.744Z,1022.38
2018-06-13T04:25:25.321Z,1022.43
2018-06-13T04:26:25.937Z,1022.42
2018-06-13T04:27:26.562Z,1022.43
2018-06-13T04:28:27.187Z,1022.43
2018-06-13T04:29:27.761Z,1022.40
2018-06-13T04:30:28.336Z,1022.48
2018-06-13T04:31:28.909Z,1022.37
2018-06-13T04:32:29.481Z,1022.46
2018-06-13T04:33:30.055Z,1022.43
2018-06-13T04:34:30.629Z,1022.42
2018-06-13T04:35:31.202Z,1022.51
2018-06-13T04:36:31.822Z,1022.52
2018-06-13T04:37:32.445Z,1022.48
2018-06-13T04:38:33.018Z,1022.55
2018-06-13T04:39:33.592Z,1022.58
2018-06-13T04:40:34.164Z,1022.49
2018-06-13T04:41:34.739Z,1022.51
2018-06-13T04:42:35.312Z,1022.60
2018-06-13T04:43:35.935Z,1022.46
2018-06-13T04:44:36.512Z,1022.48
2018-06-13T04:45:37.083Z,1022.49
2018-06-13T04:46:37.657Z,1022.51
2018-06-13T04:47:38.232Z,1022.54
2018-06-13T04:48:38.856Z,1022.57
2018-06-13T04:49:39.427Z,1022.55
2018-06-13T04:50:40.003Z,1022.67
2018-06-13T04:51:40.575Z,1022.66
2018-06-13T04:52:41.149Z,1022.65
2018-06-13T04:53:41.728Z,1022.70
2018-06-13T04:54:42.301Z,1022.70
2018-06-13T04:55:42.875Z,1022.70
2018-06-13T04:56:43.500Z,1022.68
2018-06-13T04:57:44.074Z,1022.64
2018-06-13T04:58:44.647Z,1022.69
2018-06-13T04:59:45.220Z,1022.67
2018-06-13T05:00:45.792Z,1022.73
2018-06-13T05:01:46.366Z,1022.65
2018-06-13T05:02:46.941Z,1022.68
2018-06-13T05:03:47.515Z,1022.70
2018-06-13T05:04:48.088Z,1022.67
2018-06-13T05:05:48.661Z,1022.67
2018-06-13T05:06:49.285Z,1022.80
2018-06-13T05:07:49.857Z,1022.73
2018-06-13T05:08:50.430Z,1022.76
2018-06-13T05:09:51.005Z,1022.76
2018-06-13T05:10:51.577Z,1022.78
2018-06-13T05:11:52.150Z,1022.86
2018-06-13T05:12:52.874Z,1022.87
2018-06-13T05:13:53.447Z,1022.80
2018-06-13T05:14:54.021Z,1022.91
2018-06-13T05:15:54.593Z,1022.88
2018-06-13T05:16:55.169Z,1022.92
2018-06-13T05:17:55.745Z,1022.91
2018-06-13T05:18:56.315Z,1022.89
2018-06-13T05:19:56.890Z,1022.89
2018-06-13T05:20:57.513Z,1022.76
2018-06-13T05:21:58.085Z,1022.85
2018-06-13T05:22:58.715Z,1022.84
2018-06-13T05:23:59.281Z,1022.87
2018-06-13T05:24:59.857Z,1022.89
2018-06-13T05:26:00.431Z,1022.93
2018-06-13T05:27:01.005Z,1022.87
2018-06-13T05:28:01.578Z,1022.89
2018-06-13T05:29:02.154Z,1022.91
2018-06-13T05:30:02.770Z,1022.85
2018-06-13T05:31:03.443Z,1022.89
2018-06-13T05:32:04.118Z,1022.85
2018-06-13T05:33:04.689Z,1022.87
2018-06-13T05:34:05.264Z,1022.84
2018-06-13T05:35:05.837Z,1022.91
2018-06-13T05:36:06.417Z,1022.85
2018-06-13T05:37:07.035Z,1022.80
2018-06-13T05:38:07.606Z,1022.77
2018-06-13T05:39:08.187Z,1022.82
2018-06-13T05:40:08.757Z,1022.79
2018-06-13T05:41:09.330Z,1022.76
2018-06-13T05:42:09.904Z,1022.75
2018-06-13T05:43:10.479Z,1022.81
2018-06-13T05:44:11.053Z,1022.75
2018-06-13T05:45:11.625Z,1022.72
2018-06-13T05:46:12.197Z,1022.71
2018-06-13T05:47:12.814Z,1022.76
2018-06-13T05:48:13.435Z,1022.80
2018-06-13T05:49:14.010Z,1022.78
2018-06-13T05:50:14.632Z,1022.76
2018-06-13T05:51:15.206Z,1022.83
2018-06-13T05:52:15.833Z,1022.80
2018-06-13T05:53:16.405Z,1022.76
2018-06-13T05:54:16.982Z,1022.85
2018-06-13T05:55:17.555Z,1022.85
2018-06-13T05:56:18.125Z,1022.79
2018-06-13T05:57:18.701Z,1022.73
2018-06-13T05:58:19.325Z,1022.73
2018-06-13T05:59:19.899Z,1022.76
2018-06-13T06:00:20.472Z,1022.76
2018-06-13T06:01:21.060Z,1022.78
2018-06-13T06:02:21.663Z,1022.75
2018-06-13T06:03:22.237Z,1022.75
2018-06-13T06:04:22.812Z,1022.77
2018-06-13T06:05:23.536Z,1022.75
2018-06-13T06:06:24.111Z,1022.73
2018-06-13T06:07:24.684Z,1022.78
2018-06-13T06:08:25.258Z,1022.78
2018-06-13T06:09:25.881Z,1022.77
2018-06-13T06:10:26.564Z,1022.76
2018-06-13T06:11:27.117Z,1022.80
2018-06-13T06:12:27.688Z,1022.78
2018-06-13T06:13:28.261Z,1022.81
2018-06-13T06:14:28.834Z,1022.81
2018-06-13T06:15:29.409Z,1022.79
2018-06-13T06:16:29.981Z,1022.81
2018-06-13T06:17:30.555Z,1022.85
2018-06-13T06:18:31.127Z,1022.79
2018-06-13T06:19:31.705Z,1022.79
2018-06-13T06:20:32.274Z,1022.83
2018-06-13T06:21:32.848Z,1022.80
2018-06-13T06:22:33.425Z,1022.83
2018-06-13T06:23:34.035Z,1022.82
2018-06-13T06:24:34.569Z,1022.88
2018-06-13T06:25:35.145Z,1022.83
2018-06-13T06:26:35.768Z,1022.87
2018-06-13T06:27:36.347Z,1022.79
2018-06-13T06:28:36.967Z,1022.83
2018-06-13T06:29:37.538Z,1022.87
2018-06-13T06:30:38.112Z,1022.82
2018-06-13T06:31:38.687Z,1022.82
2018-06-13T06:32:39.261Z,1022.87
2018-06-13T06:33:39.885Z,1022.80
2018-06-13T06:34:40.457Z,1022.83
2018-06-13T06:35:41.032Z,1022.78
2018-06-13T06:36:41.608Z,1022.80
2018-06-13T06:37:42.225Z,1022.87
2018-06-13T06:38:42.795Z,1022.85
2018-06-13T06:39:43.369Z,1022.87
2018-06-13T06:40:43.989Z,1022.91
2018-06-13T06:41:44.652Z,1022.92
2018-06-13T06:42:45.226Z,1022.92
2018-06-13T06:43:45.799Z,1023.06
2018-06-13T06:44:46.422Z,1022.95
2018-06-13T06:45:47.004Z,1023.03
2018-06-13T06:46:47.575Z,1023.03
2018-06-13T06:47:48.150Z,1023.04
2018-06-13T06:48:48.728Z,1023.06
2018-06-13T06:49:49.296Z,1023.07
2018-06-13T06:50:49.870Z,1023.00
2018-06-13T06:51:50.498Z,1023.12
2018-06-13T06:52:51.067Z,1023.03
2018-06-13T06:53:51.641Z,1023.09
2018-06-13T06:54:52.214Z,1023.06
2018-06-13T06:55:52.794Z,1023.12
2018-06-13T06:56:53.363Z,1023.09
2018-06-13T06:57:53.938Z,1023.16
2018-06-13T06:58:54.511Z,1023.07
2018-06-13T06:59:55.085Z,1023.13
2018-06-13T07:00:55.658Z,1023.21
2018-06-13T07:01:56.281Z,1023.12
2018-06-13T07:02:56.854Z,1023.16
2018-06-13T07:03:57.479Z,1023.21
2018-06-13T07:04:58.053Z,1023.23
2018-06-13T07:05:58.628Z,1023.21
2018-06-13T07:06:59.208Z,1023.23
2018-06-13T07:07:59.774Z,1023.26
2018-06-13T07:09:00.399Z,1023.16
2018-06-13T07:10:00.974Z,1023.19
2018-06-13T07:11:01.550Z,1023.26
2018-06-13T07:12:02.122Z,1023.27
2018-06-13T07:13:02.694Z,1023.22
2018-06-13T07:14:03.269Z,1023.13
2018-06-13T07:15:03.843Z,1023.19
2018-06-13T07:16:04.468Z,1023.16
2018-06-13T07:17:05.039Z,1023.22
2018-06-13T07:18:05.613Z,1023.26
2018-06-13T07:19:06.189Z,1023.18
2018-06-13T07:20:06.757Z,1023.31
2018-06-13T07:21:07.330Z,1023.31
2018-06-13T07:22:07.906Z,1023.33
2018-06-13T07:23:08.530Z,1023.23
2018-06-13T07:24:09.105Z,1023.27
2018-06-13T07:25:09.677Z,1023.33
2018-06-13T07:26:10.308Z,1023.28
2018-06-13T07:27:10.922Z,1023.26
2018-06-13T07:28:11.495Z,1023.30
2018-06-13T07:29:12.076Z,1023.30
2018-06-13T07:30:12.688Z,1023.30
2018-06-13T07:31:13.263Z,1023.37
2018-06-13T07:32:13.835Z,1023.37
2018-06-13T07:33:14.408Z,1023.40
2018-06-13T07:34:14.983Z,1023.36
2018-06-13T07:35:15.554Z,1023.39
2018-06-13T07:36:16.132Z,1023.39
2018-06-13T07:37:16.703Z,1023.40
2018-06-13T07:38:17.279Z,1023.38
2018-06-13T07:39:17.852Z,1023.36
2018-06-13T07:40:18.426Z,1023.39
2018-06-13T07:41:19.002Z,1023.36
2018-06-13T07:42:19.624Z,1023.36
2018-06-13T07:43:20.248Z,1023.40
2018-06-13T07:44:20.823Z,1023.40
2018-06-13T07:45:21.396Z,1023.43
2018-06-13T07:46:21.969Z,1023.36
2018-06-13T07:47:22.545Z,1023.44
2018-06-13T07:48:23.119Z,1023.39
2018-06-13T07:49:23.695Z,1023.28
2018-06-13T07:50:24.359Z,1023.28
2018-06-13T07:51:24.933Z,1023.27
2018-06-13T07:52:25.508Z,1023.26
2018-06-13T07:53:26.082Z,1023.22
2018-06-13T07:54:26.655Z,1023.24
2018-06-13T07:55:27.232Z,1023.20
2018-06-13T07:56:27.803Z,1023.26
2018-06-13T07:57:28.375Z,1023.16
2018-06-13T07:58:28.998Z,1023.26
2018-06-13T07:59:29.571Z,1023.14
2018-06-13T08:00:30.146Z,1023.26
2018-06-13T08:01:30.769Z,1023.14
2018-06-13T08:02:31.344Z,1023.13
2018-06-13T08:03:31.920Z,1023.07
2018-06-13T08:04:32.499Z,1023.09
2018-06-13T08:05:33.064Z,1023.05
2018-06-13T08:06:33.639Z,1023.10
2018-06-13T08:07:34.212Z,1023.15
2018-06-13T08:08:34.928Z,1023.16
2018-06-13T08:09:35.409Z,1023.15
2018-06-13T08:10:35.983Z,1023.21
2018-06-13T08:11:36.557Z,1023.13
2018-06-13T08:12:37.129Z,1023.18
2018-06-13T08:13:37.705Z,1023.13
2018-06-13T08:14:38.279Z,1023.12
2018-06-13T08:15:38.908Z,1023.14
2018-06-13T08:16:39.475Z,1023.16
2018-06-13T08:17:40.049Z,1023.23
2018-06-13T08:18:40.624Z,1023.12
2018-06-13T08:19:41.198Z,1023.20
2018-06-13T08:20:41.821Z,1023.12
2018-06-13T08:21:42.395Z,1023.15
2018-06-13T08:22:42.968Z,1023.17
2018-06-13T08:23:43.692Z,1023.06
2018-06-13T08:24:44.311Z,1023.19
2018-06-13T08:25:44.883Z,1023.08
2018-06-13T08:26:45.457Z,1023.08
2018-06-13T08:27:46.032Z,1023.15
2018-06-13T08:28:46.607Z,1023.21
2018-06-13T08:29:47.179Z,1023.24
2018-06-13T08:30:47.757Z,1023.23
2018-06-13T08:31:48.333Z,1023.30
2018-06-13T08:32:48.971Z,1023.36
2018-06-13T08:33:49.652Z,1023.28
2018-06-13T08:34:50.166Z,1023.23
2018-06-13T08:35:50.740Z,1023.25
2018-06-13T08:36:51.321Z,1023.25
2018-06-13T08:37:51.899Z,1023.24
2018-06-13T08:38:52.480Z,1023.27
2018-06-13T08:39:53.154Z,1023.30
2018-06-13T08:40:53.684Z,1023.36
2018-06-13T08:41:54.260Z,1023.38
2018-06-13T08:42:54.890Z,1023.38
2018-06-13T08:43:55.466Z,1023.35
2018-06-13T08:44:56.048Z,1023.36
2018-06-13T08:45:56.626Z,1023.37
2018-06-13T08:46:57.257Z,1023.37
2018-06-13T08:47:57.835Z,1023.36
2018-06-13T08:48:58.412Z,1023.36
2018-06-13T08:49:58.990Z,1023.36
2018-06-13T08:50:59.570Z,1023.39
2018-06-13T08:52:00.168Z,1023.46
2018-06-13T08:53:00.729Z,1023.32
2018-06-13T08:54:01.309Z,1023.35
2018-06-13T08:55:01.892Z,1023.34
2018-06-13T08:56:02.620Z,1023.32
2018-06-13T08:57:03.201Z,1023.33
2018-06-13T08:58:03.833Z,1023.39
2018-06-13T08:59:04.464Z,1023.32
2018-06-13T09:00:05.043Z,1023.38
2018-06-13T09:01:05.625Z,1023.41
2018-06-13T09:02:06.244Z,1023.41
2018-06-13T09:03:06.824Z,1023.39
2018-06-13T09:04:07.402Z,1023.30
2018-06-13T09:05:07.982Z,1023.36
2018-06-13T09:06:08.560Z,1023.39
2018-06-13T09:07:09.140Z,1023.36
2018-06-13T09:08:09.721Z,1023.34
2018-06-13T09:09:10.304Z,1023.32
2018-06-13T09:10:10.882Z,1023.43
2018-06-13T09:11:11.462Z,1023.40
2018-06-13T09:12:12.093Z,1023.47
2018-06-13T09:13:12.670Z,1023.50
2018-06-13T09:14:13.250Z,1023.51
2018-06-13T09:15:13.829Z,1023.51
2018-06-13T09:16:14.460Z,1023.61
2018-06-13T09:17:15.098Z,1023.57
2018-06-13T09:18:15.718Z,1023.53
2018-06-13T09:19:16.302Z,1023.56
2018-06-13T09:20:16.886Z,1023.60
2018-06-13T09:21:17.508Z,1023.48
2018-06-13T09:22:18.122Z,1023.44
2018-06-13T09:23:18.670Z,1023.47
2018-06-13T09:24:19.250Z,1023.47
2018-06-13T09:25:19.834Z,1023.44
2018-06-13T09:26:20.411Z,1023.54
2018-06-13T09:27:20.999Z,1023.49
2018-06-13T09:28:21.617Z,1023.50
2018-06-13T09:29:22.199Z,1023.51
2018-06-13T09:30:22.830Z,1023.50
2018-06-13T09:31:23.460Z,1023.46
2018-06-13T09:32:24.093Z,1023.54
2018-06-13T09:33:24.673Z,1023.53
2018-06-13T09:34:25.256Z,1023.54
2018-06-13T09:35:25.835Z,1023.57
2018-06-13T09:36:26.469Z,1023.59
2018-06-13T09:37:27.123Z,1023.62
2018-06-13T09:38:27.632Z,1023.51
2018-06-13T09:39:28.210Z,1023.59
2018-06-13T09:40:28.790Z,1023.60
2018-06-13T09:41:29.370Z,1023.55
2018-06-13T09:42:29.952Z,1023.57
2018-06-13T09:43:30.533Z,1023.68
2018-06-13T09:44:31.115Z,1023.64
2018-06-13T09:45:31.697Z,1023.63
2018-06-13T09:46:32.328Z,1023.58
2018-06-13T09:47:32.957Z,1023.54
2018-06-13T09:48:33.588Z,1023.61
2018-06-13T09:49:34.170Z,1023.58
2018-06-13T09:50:34.750Z,1023.67
2018-06-13T09:51:35.334Z,1023.62
2018-06-13T09:52:35.915Z,1023.64
2018-06-13T09:53:36.500Z,1023.69
2018-06-13T09:54:37.121Z,1023.69
2018-06-13T09:55:37.705Z,1023.72
2018-06-13T09:56:38.286Z,1023.70
2018-06-13T09:57:38.867Z,1023.68
2018-06-13T09:58:39.448Z,1023.71
2018-06-13T09:59:40.034Z,1023.60
2018-06-13T10:00:40.612Z,1023.73
2018-06-13T10:01:41.244Z,1023.64
2018-06-13T10:02:41.828Z,1023.56
2018-06-13T10:03:42.409Z,1023.66
2018-06-13T10:04:43.028Z,1023.64
2018-06-13T10:05:43.623Z,1023.62
2018-06-13T10:06:44.243Z,1023.63
2018-06-13T10:07:44.872Z,1023.64
2018-06-13T10:08:45.483Z,1023.69
2018-06-13T10:09:46.037Z,1023.69
2018-06-13T10:10:46.672Z,1023.66
2018-06-13T10:11:47.249Z,1023.71
2018-06-13T10:12:47.831Z,1023.66
2018-06-13T10:13:48.412Z,1023.73
2018-06-13T10:14:49.005Z,1023.69
2018-06-13T10:15:49.576Z,1023.69
2018-06-13T10:16:50.208Z,1023.82
2018-06-13T10:17:50.790Z,1023.80
2018-06-13T10:18:51.369Z,1023.75
2018-06-13T10:19:51.951Z,1023.70
2018-06-13T10:20:52.583Z,1023.71
2018-06-13T10:21:53.215Z,1023.75
2018-06-13T10:22:53.798Z,1023.69
2018-06-13T10:23:54.432Z,1023.77
2018-06-13T10:24:55.014Z,1023.77
2018-06-13T10:25:55.594Z,1023.74
2018-06-13T10:26:56.176Z,1023.66
2018-06-13T10:27:56.758Z,1023.64
2018-06-13T10:28:57.373Z,1023.72
2018-06-13T10:29:57.922Z,1023.71
2018-06-13T10:30:58.502Z,1023.69
2018-06-13T10:31:59.085Z,1023.74
2018-06-13T10:32:59.667Z,1023.72
2018-06-13T10:34:00.249Z,1023.71
2018-06-13T10:35:00.831Z,1023.68
2018-06-13T10:36:01.413Z,1023.81
2018-06-13T10:37:01.995Z,1023.76
2018-06-13T10:38:02.619Z,1023.75
2018-06-13T10:39:03.199Z,1023.76
2018-06-13T10:40:03.832Z,1023.80
2018-06-13T10:41:04.564Z,1023.71
2018-06-13T10:42:05.143Z,1023.78
2018-06-13T10:43:05.722Z,1023.73
2018-06-13T10:44:06.303Z,1023.72
2018-06-13T10:45:06.884Z,1023.73
2018-06-13T10:46:07.466Z,1023.80
2018-06-13T10:47:08.049Z,1023.74
2018-06-13T10:48:08.629Z,1023.69
2018-06-13T10:49:09.212Z,1023.65
2018-06-13T10:50:09.842Z,1023.72
2018-06-13T10:51:10.424Z,1023.69
2018-06-13T10:52:11.028Z,1023.72
2018-06-13T10:53:11.585Z,1023.71
2018-06-13T10:54:12.164Z,1023.68
2018-06-13T10:55:12.746Z,1023.65
2018-06-13T10:56:13.476Z,1023.66
2018-06-13T10:57:14.009Z,1023.65
2018-06-13T10:58:14.642Z,1023.63
2018-06-13T10:59:15.223Z,1023.65
2018-06-13T11:00:15.805Z,1023.59
2018-06-13T11:01:16.388Z,1023.64
2018-06-13T11:02:17.065Z,1023.62
2018-06-13T11:03:17.646Z,1023.63
2018-06-13T11:04:18.227Z,1023.64
2018-06-13T11:05:18.808Z,1023.57
2018-06-13T11:06:19.392Z,1023.64
2018-06-13T11:07:20.019Z,1023.57
2018-06-13T11:08:20.636Z,1023.55
2018-06-13T11:09:21.199Z,1023.55
2018-06-13T11:10:21.779Z,1023.58
2018-06-13T11:11:22.485Z,1023.58
2018-06-13T11:12:23.077Z,1023.61
2018-06-13T11:13:23.659Z,1023.54
2018-06-13T11:14:24.389Z,1023.61
2018-06-13T11:15:25.006Z,1023.51
2018-06-13T11:16:25.587Z,1023.48
2018-06-13T11:17:26.168Z,1023.56
2018-06-13T11:18:26.750Z,1023.51
2018-06-13T11:19:27.333Z,1023.52
2018-06-13T11:20:27.960Z,1023.49
2018-06-13T11:21:28.537Z,1023.53
2018-06-13T11:22:29.119Z,1023.63
2018-06-13T11:23:29.702Z,1023.49
2018-06-13T11:24:30.335Z,1023.48
2018-06-13T11:25:30.966Z,1023.58
2018-06-13T11:26:31.703Z,1023.56
2018-06-13T11:27:32.368Z,1023.55
2018-06-13T11:28:32.900Z,1023.47
2018-06-13T11:29:33.479Z,1023.55
2018-06-13T11:30:34.414Z,1023.43
2018-06-13T11:31:36.154Z,1023.43
2018-06-13T11:32:36.683Z,1023.56
2018-06-13T11:33:37.426Z,1023.50
2018-06-13T11:34:38.303Z,1023.51
2018-06-13T11:35:38.888Z,1023.47
2018-06-13T11:36:39.470Z,1023.46
2018-06-13T11:37:40.055Z,1023.50
2018-06-13T11:38:40.688Z,1023.49
2018-06-13T11:39:41.270Z,1023.45
2018-06-13T11:40:41.853Z,1023.45
2018-06-13T11:41:42.444Z,1023.51
2018-06-13T11:42:43.035Z,1023.46
2018-06-13T11:43:43.626Z,1023.53
2018-06-13T11:44:44.216Z,1023.40
2018-06-13T11:45:44.807Z,1023.49
2018-06-13T11:46:45.397Z,1023.44
2018-06-13T11:47:45.984Z,1023.50
2018-06-13T11:48:46.575Z,1023.45
2018-06-13T11:49:47.215Z,1023.47
2018-06-13T11:50:47.810Z,1023.57
2018-06-13T11:51:48.597Z,1023.46
2018-06-13T11:52:49.188Z,1023.38
2018-06-13T11:53:49.780Z,1023.49
2018-06-13T11:54:50.367Z,1023.51
2018-06-13T11:55:50.958Z,1023.55
2018-06-13T11:56:51.600Z,1023.42
2018-06-13T11:57:52.191Z,1023.45
2018-06-13T11:58:52.782Z,1023.39
2018-06-13T11:59:53.373Z,1023.36
2018-06-13T12:00:54.006Z,1023.43
2018-06-13T12:01:54.597Z,1023.42
2018-06-13T12:02:55.188Z,1023.27
2018-06-13T12:03:55.781Z,1023.31
2018-06-13T12:04:56.373Z,1023.31
2018-06-13T12:05:57.009Z,1023.23
2018-06-13T12:06:57.599Z,1023.28
2018-06-13T12:07:58.340Z,1023.32
2018-06-13T12:08:59.439Z,1023.22
2018-06-13T12:10:00.376Z,1023.32
2018-06-13T12:11:01.034Z,1023.17
2018-06-13T12:12:01.598Z,1023.29
2018-06-13T12:13:02.186Z,1023.27